createdAt,value
2019-04-14T00:01:17.244Z,66.36
2019-04-14T00:02:40.661Z,66.36
2019-04-14T00:03:54.346Z,66.42
2019-04-14T00:05:01.850Z,66.43
2019-04-14T00:06:07.277Z,66.47
2019-04-14T00:07:12.423Z,66.51
2019-04-14T00:08:17.738Z,66.60
2019-04-14T00:09:23.241Z,66.62
2019-04-14T00:10:29.008Z,66.63
2019-04-14T00:11:41.289Z,66.66
2019-04-14T00:12:47.060Z,66.63
2019-04-14T00:13:52.483Z,66.58
2019-04-14T00:14:57.851Z,66.53
2019-04-14T00:16:03.197Z,66.55
2019-04-14T00:17:08.774Z,66.48
2019-04-14T00:18:14.288Z,66.39
2019-04-14T00:19:19.767Z,66.35
2019-04-14T00:20:25.010Z,66.28
2019-04-14T00:21:30.446Z,66.23
2019-04-14T00:22:35.724Z,66.24
2019-04-14T00:23:41.777Z,66.28
2019-04-14T00:24:46.865Z,66.31
2019-04-14T00:25:52.232Z,66.31
2019-04-14T00:26:57.368Z,66.34
2019-04-14T00:28:03.014Z,66.40
2019-04-14T00:29:08.938Z,66.47
2019-04-14T00:30:16.531Z,66.50
2019-04-14T00:31:21.712Z,66.62
2019-04-14T00:32:27.461Z,66.79
2019-04-14T00:33:32.436Z,66.95
2019-04-14T00:34:57.176Z,67.02
2019-04-14T00:36:24.310Z,67.15
2019-04-14T00:37:38.055Z,67.19
2019-04-14T00:38:47.754Z,67.21
2019-04-14T00:39:55.485Z,67.23
2019-04-14T00:41:15.910Z,67.25
2019-04-14T00:42:38.759Z,67.33
2019-04-14T00:44:07.830Z,67.34
2019-04-14T00:45:32.277Z,67.30
2019-04-14T00:46:33.808Z,67.21
2019-04-14T00:47:51.796Z,67.23
2019-04-14T00:48:49.773Z,67.26
2019-04-14T00:49:55.182Z,67.22
2019-04-14T00:51:00.570Z,67.20
2019-04-14T00:52:06.047Z,67.21
2019-04-14T00:53:12.099Z,67.13
2019-04-14T00:54:17.548Z,67.08
2019-04-14T00:55:22.887Z,67.07
2019-04-14T00:56:27.970Z,67.02
2019-04-14T00:57:33.377Z,67.02
2019-04-14T00:58:38.959Z,67.07
2019-04-14T00:59:44.364Z,67.12
2019-04-14T01:00:50.151Z,67.15
2019-04-14T01:01:55.392Z,67.17
2019-04-14T01:03:00.781Z,67.19
2019-04-14T01:04:05.880Z,67.23
2019-04-14T01:05:13.140Z,67.26
2019-04-14T01:06:18.598Z,67.21
2019-04-14T01:07:26.550Z,67.19
2019-04-14T01:08:31.419Z,67.12
2019-04-14T01:09:36.960Z,67.04
2019-04-14T01:10:43.311Z,67.05
2019-04-14T01:11:48.810Z,67.04
2019-04-14T01:12:53.980Z,67.09
2019-04-14T01:13:59.418Z,67.12
2019-04-14T01:15:05.152Z,67.06
2019-04-14T01:16:16.609Z,66.92
2019-04-14T01:17:17.734Z,66.83
2019-04-14T01:18:23.273Z,66.80
2019-04-14T01:19:28.746Z,66.80
2019-04-14T01:20:34.778Z,66.78
2019-04-14T01:21:39.960Z,66.66
2019-04-14T01:22:46.613Z,66.59
2019-04-14T01:23:52.352Z,66.57
2019-04-14T01:24:57.602Z,66.57
2019-04-14T01:26:02.938Z,66.57
2019-04-14T01:27:08.141Z,66.54
2019-04-14T01:28:13.742Z,66.54
2019-04-14T01:29:19.090Z,66.50
2019-04-14T01:30:24.154Z,66.49
2019-04-14T01:31:29.585Z,66.44
2019-04-14T01:32:35.112Z,66.37
2019-04-14T01:33:42.243Z,66.39
2019-04-14T01:34:50.781Z,66.36
2019-04-14T01:35:55.332Z,66.36
2019-04-14T01:37:00.813Z,66.34
2019-04-14T01:38:06.010Z,66.42
2019-04-14T01:39:11.168Z,66.43
2019-04-14T01:40:20.590Z,66.47
2019-04-14T01:41:26.075Z,66.45
2019-04-14T01:42:31.127Z,66.47
2019-04-14T01:43:36.488Z,66.45
2019-04-14T01:44:41.672Z,66.49
2019-04-14T01:45:59.777Z,66.51
2019-04-14T01:46:54.285Z,66.49
2019-04-14T01:47:59.688Z,66.49
2019-04-14T01:49:05.034Z,66.52
2019-04-14T01:50:10.531Z,66.53
2019-04-14T01:51:25.174Z,66.54
2019-04-14T01:52:36.333Z,66.52
2019-04-14T01:54:06.306Z,66.53
2019-04-14T01:55:39.760Z,66.57
2019-04-14T01:57:06.755Z,66.58
2019-04-14T01:58:34.337Z,66.63
2019-04-14T01:59:39.346Z,66.63
2019-04-14T02:01:02.022Z,66.64
2019-04-14T02:02:09.711Z,66.67
2019-04-14T02:03:14.919Z,66.70
2019-04-14T02:04:20.441Z,66.72
2019-04-14T02:05:25.668Z,66.75
2019-04-14T02:06:33.339Z,66.74
2019-04-14T02:07:38.414Z,66.76
2019-04-14T02:08:43.718Z,66.75
2019-04-14T02:09:48.986Z,66.78
2019-04-14T02:10:54.376Z,66.78
2019-04-14T02:11:59.741Z,66.79
2019-04-14T02:13:05.061Z,66.80
2019-04-14T02:14:10.481Z,66.80
2019-04-14T02:15:15.528Z,66.79
2019-04-14T02:16:30.489Z,66.82
2019-04-14T02:17:28.413Z,66.83
2019-04-14T02:18:34.073Z,66.86
2019-04-14T02:19:39.304Z,66.85
2019-04-14T02:20:44.702Z,66.85
2019-04-14T02:21:50.378Z,66.89
2019-04-14T02:22:55.386Z,67.02
2019-04-14T02:24:02.439Z,67.06
2019-04-14T02:25:07.769Z,67.07
2019-04-14T02:26:13.258Z,67.12
2019-04-14T02:27:18.882Z,67.19
2019-04-14T02:28:24.274Z,67.23
2019-04-14T02:29:29.742Z,67.33
2019-04-14T02:30:41.689Z,67.40
2019-04-14T02:32:09.585Z,67.42
2019-04-14T02:33:17.753Z,67.43
2019-04-14T02:34:25.595Z,67.45
2019-04-14T02:35:28.501Z,67.51
2019-04-14T02:36:41.632Z,67.53
2019-04-14T02:37:43.294Z,67.55
2019-04-14T02:38:55.289Z,67.52
2019-04-14T02:40:03.873Z,67.50
2019-04-14T02:42:20.877Z,67.49
2019-04-14T02:43:25.789Z,67.49
2019-04-14T02:45:36.654Z,67.43
2019-04-14T02:49:56.586Z,67.39
2019-04-14T02:51:21.114Z,67.41
2019-04-14T02:52:11.623Z,67.40
2019-04-14T02:53:24.300Z,67.45
2019-04-14T02:55:34.192Z,67.51
2019-04-14T02:57:49.463Z,67.47
2019-04-14T02:58:58.580Z,67.39
2019-04-14T03:00:11.292Z,67.36
2019-04-14T03:02:22.917Z,67.27
2019-04-14T03:03:22.918Z,67.26
2019-04-14T03:04:27.700Z,67.25
2019-04-14T03:05:39.600Z,67.31
2019-04-14T03:06:41.437Z,67.34
2019-04-14T03:08:59.079Z,67.49
2019-04-14T03:10:18.519Z,67.47
2019-04-14T03:11:14.742Z,67.48
2019-04-14T03:12:19.222Z,67.52
2019-04-14T03:14:30.442Z,67.51
2019-04-14T03:15:39.656Z,67.51
2019-04-14T03:18:40.494Z,67.45
2019-04-14T03:21:34.485Z,67.53
2019-04-14T03:22:55.811Z,67.61
2019-04-14T03:25:30.111Z,67.72
2019-04-14T03:27:04.910Z,67.77
2019-04-14T03:28:27.947Z,67.87
2019-04-14T03:29:50.370Z,67.86
2019-04-14T03:33:27.034Z,68.08
2019-04-14T03:35:47.863Z,68.28
2019-04-14T03:38:52.326Z,68.36
2019-04-14T03:39:40.432Z,68.42
2019-04-14T03:41:56.823Z,68.51
2019-04-14T03:43:01.718Z,68.61
2019-04-14T03:44:01.632Z,68.71
2019-04-14T03:45:14.436Z,68.72
2019-04-14T03:46:25.429Z,68.74
2019-04-14T03:47:25.480Z,68.76
2019-04-14T03:50:52.483Z,68.93
2019-04-14T03:53:08.127Z,69.04
2019-04-14T03:54:06.234Z,69.08
2019-04-14T03:55:05.911Z,69.07
2019-04-14T03:56:49.094Z,69.05
2019-04-14T03:57:54.418Z,69.04
2019-04-14T03:58:59.816Z,69.04
2019-04-14T04:00:05.793Z,69.02
2019-04-14T04:01:10.741Z,69.02
2019-04-14T04:02:16.153Z,69.12
2019-04-14T04:03:21.825Z,69.19
2019-04-14T04:04:27.475Z,69.19
2019-04-14T04:05:32.949Z,69.25
2019-04-14T04:06:38.280Z,69.28
2019-04-14T04:07:43.339Z,69.31
2019-04-14T04:08:48.516Z,69.36
2019-04-14T04:10:03.011Z,69.40
2019-04-14T04:11:08.537Z,69.47
2019-04-14T04:12:13.987Z,69.46
2019-04-14T04:13:19.352Z,69.47
2019-04-14T04:14:24.668Z,69.49
2019-04-14T04:15:30.036Z,69.52
2019-04-14T04:16:46.102Z,69.58
2019-04-14T04:18:02.637Z,69.61
2019-04-14T04:19:18.566Z,69.68
2019-04-14T04:20:43.448Z,69.70
2019-04-14T04:22:10.652Z,69.75
2019-04-14T04:23:35.636Z,69.75
2019-04-14T04:24:47.518Z,69.80
2019-04-14T04:26:14.486Z,69.79
2019-04-14T04:27:30.864Z,69.86
2019-04-14T04:29:07.138Z,69.85
2019-04-14T04:30:17.170Z,69.81
2019-04-14T04:31:40.133Z,69.74
2019-04-14T04:33:22.315Z,69.70
2019-04-14T04:34:33.791Z,69.70
2019-04-14T04:35:45.916Z,69.66
2019-04-14T04:36:57.856Z,69.68
2019-04-14T04:38:28.788Z,69.66
2019-04-14T04:39:38.132Z,69.66
2019-04-14T04:40:43.978Z,69.66
2019-04-14T04:41:49.465Z,69.64
2019-04-14T04:42:54.919Z,69.65
2019-04-14T04:44:00.703Z,69.66
2019-04-14T04:45:06.131Z,69.65
2019-04-14T04:46:11.364Z,69.65
2019-04-14T04:47:16.688Z,69.63
2019-04-14T04:48:21.808Z,69.63
2019-04-14T04:49:29.279Z,69.65
2019-04-14T04:50:34.669Z,69.70
2019-04-14T04:51:40.031Z,69.70
2019-04-14T04:52:45.554Z,69.69
2019-04-14T04:53:50.586Z,69.74
2019-04-14T04:54:55.964Z,69.76
2019-04-14T04:56:01.498Z,69.74
2019-04-14T04:57:06.922Z,69.77
2019-04-14T04:58:12.157Z,69.83
2019-04-14T04:59:17.423Z,69.84
2019-04-14T05:00:22.726Z,69.83
2019-04-14T05:01:27.669Z,69.83
2019-04-14T05:02:33.162Z,69.83
2019-04-14T05:03:38.529Z,69.80
2019-04-14T05:04:43.929Z,69.80
2019-04-14T05:06:44.371Z,69.79
2019-04-14T05:07:49.323Z,69.82
2019-04-14T05:08:57.005Z,69.73
2019-04-14T05:10:15.383Z,69.82
2019-04-14T05:11:29.411Z,69.87
2019-04-14T05:12:50.236Z,69.98
2019-04-14T05:13:55.937Z,70.04
2019-04-14T05:15:18.839Z,70.08
2019-04-14T05:16:24.470Z,70.17
2019-04-14T05:17:29.873Z,70.21
2019-04-14T05:18:35.556Z,70.22
2019-04-14T05:19:42.138Z,70.26
2019-04-14T05:20:48.766Z,70.21
2019-04-14T05:21:54.092Z,70.21
2019-04-14T05:22:59.400Z,70.18
2019-04-14T05:24:04.936Z,70.17
2019-04-14T05:25:10.268Z,70.13
2019-04-14T05:26:15.625Z,70.04
2019-04-14T05:27:21.104Z,70.00
2019-04-14T05:28:26.707Z,69.93
2019-04-14T05:29:31.894Z,69.88
2019-04-14T05:30:37.156Z,69.89
2019-04-14T05:31:42.580Z,69.86
2019-04-14T05:32:48.162Z,69.78
2019-04-14T05:33:53.359Z,69.73
2019-04-14T05:34:58.707Z,69.64
2019-04-14T05:36:04.254Z,69.59
2019-04-14T05:37:09.916Z,69.53
2019-04-14T05:38:14.947Z,69.40
2019-04-14T05:39:20.315Z,69.36
2019-04-14T05:40:25.622Z,69.32
2019-04-14T05:41:30.889Z,69.30
2019-04-14T05:42:36.515Z,69.25
2019-04-14T05:43:49.809Z,69.23
2019-04-14T05:44:49.341Z,69.27
2019-04-14T05:45:54.539Z,69.25
2019-04-14T05:47:00.075Z,69.24
2019-04-14T05:48:05.535Z,69.25
2019-04-14T05:49:12.086Z,69.21
2019-04-14T05:50:18.174Z,69.19
2019-04-14T05:51:24.850Z,69.13
2019-04-14T05:52:30.341Z,69.12
2019-04-14T05:53:35.346Z,69.07
2019-04-14T05:54:40.492Z,69.02
2019-04-14T05:55:45.983Z,69.00
2019-04-14T05:56:51.643Z,69.03
2019-04-14T05:57:56.917Z,68.97
2019-04-14T05:59:02.251Z,68.93
2019-04-14T06:00:10.343Z,68.88
2019-04-14T06:01:16.074Z,68.76
2019-04-14T06:02:22.236Z,68.71
2019-04-14T06:03:27.785Z,68.67
2019-04-14T06:04:33.222Z,68.53
2019-04-14T06:05:38.324Z,68.46
2019-04-14T06:06:43.326Z,68.46
2019-04-14T06:07:48.380Z,68.34
2019-04-14T06:08:54.344Z,68.14
2019-04-14T06:09:59.281Z,68.02
2019-04-14T06:11:04.263Z,67.85
2019-04-14T06:12:09.285Z,67.84
2019-04-14T06:13:14.309Z,67.72
2019-04-14T06:14:19.277Z,67.52
2019-04-14T06:15:24.212Z,67.49
2019-04-14T06:16:29.187Z,67.49
2019-04-14T06:17:34.446Z,67.50
2019-04-14T06:18:39.949Z,67.52
2019-04-14T06:19:44.890Z,67.41
2019-04-14T06:20:49.914Z,67.40
2019-04-14T06:21:55.042Z,67.34
2019-04-14T06:22:59.978Z,67.25
2019-04-14T06:24:05.274Z,67.16
2019-04-14T06:25:10.590Z,67.06
2019-04-14T06:26:15.615Z,66.91
2019-04-14T06:27:20.553Z,66.81
2019-04-14T06:28:25.486Z,66.77
2019-04-14T06:29:30.774Z,66.72
2019-04-14T06:30:53.363Z,66.75
2019-04-14T06:32:08.167Z,66.75
2019-04-14T06:33:30.831Z,66.66
2019-04-14T06:34:50.959Z,66.61
2019-04-14T06:36:12.003Z,66.56
2019-04-14T06:37:28.007Z,66.52
2019-04-14T06:38:34.941Z,66.40
2019-04-14T06:39:43.223Z,66.34
2019-04-14T06:40:52.788Z,66.18
2019-04-14T06:41:57.895Z,66.13
2019-04-14T06:43:02.811Z,66.00
2019-04-14T06:44:08.146Z,66.00
2019-04-14T06:45:13.520Z,65.97
2019-04-14T06:46:18.867Z,65.99
2019-04-14T06:47:23.845Z,66.01
2019-04-14T06:48:28.907Z,65.94
2019-04-14T06:49:34.140Z,65.90
2019-04-14T06:50:39.337Z,65.87
2019-04-14T06:51:44.405Z,65.74
2019-04-14T06:52:49.346Z,65.76
2019-04-14T06:53:54.556Z,65.68
2019-04-14T06:54:59.564Z,65.60
2019-04-14T06:56:05.634Z,65.48
2019-04-14T06:57:10.719Z,65.45
2019-04-14T06:58:15.819Z,65.39
2019-04-14T06:59:20.737Z,65.27
2019-04-14T07:00:25.679Z,65.33
2019-04-14T07:01:30.689Z,65.26
2019-04-14T07:02:35.776Z,65.26
2019-04-14T07:03:40.749Z,65.15
2019-04-14T07:04:45.853Z,64.89
2019-04-14T07:05:51.088Z,64.88
2019-04-14T07:06:56.054Z,64.85
2019-04-14T07:08:01.022Z,64.87
2019-04-14T07:09:07.406Z,64.81
2019-04-14T07:10:12.506Z,64.64
2019-04-14T07:11:17.684Z,64.55
2019-04-14T07:12:22.653Z,64.48
2019-04-14T07:13:27.598Z,64.41
2019-04-14T07:14:32.580Z,64.36
2019-04-14T07:15:37.796Z,64.29
2019-04-14T07:16:42.836Z,64.28
2019-04-14T07:17:47.783Z,64.28
2019-04-14T07:18:53.160Z,64.26
2019-04-14T07:20:02.299Z,64.18
2019-04-14T07:21:04.983Z,64.23
2019-04-14T07:22:09.896Z,64.23
2019-04-14T07:23:14.887Z,64.22
2019-04-14T07:24:19.860Z,64.17
2019-04-14T07:25:24.781Z,64.14
2019-04-14T07:26:29.813Z,64.09
2019-04-14T07:27:35.127Z,64.06
2019-04-14T07:28:40.343Z,63.92
2019-04-14T07:29:54.491Z,63.93
2019-04-14T07:31:36.977Z,63.87
2019-04-14T07:33:10.532Z,63.79
2019-04-14T07:34:36.173Z,63.68
2019-04-14T07:36:11.006Z,63.56
2019-04-14T07:37:46.725Z,63.50
2019-04-14T07:39:09.646Z,63.43
2019-04-14T07:40:23.479Z,63.04
2019-04-14T07:41:33.461Z,62.92
2019-04-14T07:42:52.454Z,62.83
2019-04-14T07:44:22.979Z,62.76
2019-04-14T07:45:34.021Z,62.71
2019-04-14T07:46:45.744Z,62.60
2019-04-14T07:48:12.988Z,62.52
2019-04-14T07:49:49.198Z,62.43
2019-04-14T07:51:10.465Z,62.33
2019-04-14T07:52:34.128Z,62.26
2019-04-14T07:54:00.918Z,62.24
2019-04-14T07:55:29.014Z,62.19
2019-04-14T07:56:45.508Z,62.00
2019-04-14T07:57:59.024Z,62.04
2019-04-14T07:59:26.020Z,62.03
2019-04-14T08:01:55.913Z,62.02
2019-04-14T08:03:05.813Z,62.06
2019-04-14T08:04:23.782Z,62.08
2019-04-14T08:05:32.060Z,62.14
2019-04-14T08:06:38.447Z,62.18
2019-04-14T08:07:43.967Z,62.18
2019-04-14T08:08:49.279Z,62.16
2019-04-14T08:09:54.479Z,62.06
2019-04-14T08:10:59.538Z,62.01
2019-04-14T08:12:04.665Z,61.97
2019-04-14T08:13:10.014Z,61.87
2019-04-14T08:14:15.066Z,61.68
2019-04-14T08:15:19.985Z,61.59
2019-04-14T08:16:25.087Z,61.45
2019-04-14T08:17:30.008Z,61.36
2019-04-14T08:18:35.036Z,61.31
2019-04-14T08:19:40.050Z,61.18
2019-04-14T08:20:45.054Z,60.86
2019-04-14T08:21:49.973Z,60.72
2019-04-14T08:22:57.654Z,60.59
2019-04-14T08:24:01.633Z,60.40
2019-04-14T08:25:07.554Z,60.21
2019-04-14T08:26:12.555Z,60.10
2019-04-14T08:27:17.960Z,60.03
2019-04-14T08:28:22.992Z,59.88
2019-04-14T08:29:28.014Z,59.87
2019-04-14T08:30:33.268Z,59.84
2019-04-14T08:31:38.367Z,59.83
2019-04-14T08:32:43.658Z,59.79
2019-04-14T08:33:48.674Z,59.76
2019-04-14T08:34:53.996Z,59.73
2019-04-14T08:35:59.023Z,59.67
2019-04-14T08:37:04.067Z,59.70
2019-04-14T08:38:09.099Z,59.66
2019-04-14T08:39:14.126Z,59.58
2019-04-14T08:40:19.213Z,59.59
2019-04-14T08:41:24.154Z,59.55
2019-04-14T08:42:48.565Z,59.48
2019-04-14T08:44:16.273Z,59.50
2019-04-14T08:45:27.128Z,59.32
2019-04-14T08:48:42.063Z,59.08
2019-04-14T08:49:59.479Z,59.09
2019-04-14T08:51:32.791Z,59.13
2019-04-14T08:52:44.868Z,59.10
2019-04-14T08:53:59.523Z,59.09
2019-04-14T08:55:16.387Z,59.10
2019-04-14T08:56:29.366Z,59.16
2019-04-14T08:57:47.031Z,59.05
2019-04-14T08:59:23.292Z,59.00
2019-04-14T09:00:47.607Z,58.97
2019-04-14T09:02:23.880Z,58.83
2019-04-14T09:03:51.042Z,58.77
2019-04-14T09:05:15.386Z,58.36
2019-04-14T09:06:51.997Z,58.22
2019-04-14T09:08:18.191Z,58.14
2019-04-14T09:09:28.604Z,58.03
2019-04-14T09:10:37.192Z,57.96
2019-04-14T09:11:48.008Z,57.70
2019-04-14T09:12:54.451Z,57.56
2019-04-14T09:13:59.392Z,57.40
2019-04-14T09:15:04.819Z,57.34
2019-04-14T09:16:09.777Z,57.20
2019-04-14T09:17:15.195Z,57.08
2019-04-14T09:18:20.407Z,56.96
2019-04-14T09:19:25.644Z,56.97
2019-04-14T09:20:30.766Z,56.94
2019-04-14T09:21:35.797Z,56.85
2019-04-14T09:22:40.786Z,56.69
2019-04-14T09:23:45.840Z,56.63
2019-04-14T09:24:50.765Z,56.52
2019-04-14T09:25:56.104Z,56.48
2019-04-14T09:27:01.428Z,56.34
2019-04-14T09:28:06.506Z,56.24
2019-04-14T09:29:11.529Z,56.13
2019-04-14T09:30:16.821Z,55.92
2019-04-14T09:31:21.775Z,55.79
2019-04-14T09:32:27.444Z,55.70
2019-04-14T09:33:32.457Z,55.57
2019-04-14T09:34:37.543Z,55.45
2019-04-14T09:35:42.579Z,55.16
2019-04-14T09:36:47.885Z,54.94
2019-04-14T09:37:52.891Z,54.96
2019-04-14T09:38:57.924Z,54.96
2019-04-14T09:40:02.958Z,54.61
2019-04-14T09:41:07.913Z,54.41
2019-04-14T09:42:12.883Z,54.37
2019-04-14T09:43:18.157Z,54.28
2019-04-14T09:44:23.367Z,53.94
2019-04-14T09:45:28.481Z,53.42
2019-04-14T09:46:33.426Z,53.42
2019-04-14T09:47:38.370Z,53.60
2019-04-14T09:48:43.312Z,53.44
2019-04-14T09:49:48.651Z,53.26
2019-04-14T09:51:04.321Z,53.04
2019-04-14T09:52:00.189Z,52.81
2019-04-14T09:53:08.924Z,52.63
2019-04-14T09:54:13.843Z,52.50
2019-04-14T09:55:18.936Z,52.46
2019-04-14T09:56:23.944Z,51.89
2019-04-14T09:57:28.880Z,51.89
2019-04-14T09:58:33.841Z,52.35
2019-04-14T09:59:39.321Z,52.12
2019-04-14T10:00:44.465Z,51.74
2019-04-14T10:01:52.688Z,51.57
2019-04-14T10:02:57.974Z,51.29
2019-04-14T10:04:02.957Z,50.97
2019-04-14T10:05:08.185Z,50.95
2019-04-14T10:06:13.128Z,50.84
2019-04-14T10:07:18.381Z,50.69
2019-04-14T10:08:23.394Z,50.51
2019-04-14T10:09:28.549Z,50.53
2019-04-14T10:10:33.850Z,50.39
2019-04-14T10:11:48.458Z,50.41
2019-04-14T10:12:48.081Z,50.42
2019-04-14T10:13:53.020Z,50.15
2019-04-14T10:14:57.990Z,50.08
2019-04-14T10:16:03.263Z,50.00
2019-04-14T10:17:08.567Z,49.93
2019-04-14T10:18:13.489Z,49.72
2019-04-14T10:19:18.627Z,49.55
2019-04-14T10:20:23.549Z,49.33
2019-04-14T10:21:28.632Z,49.22
2019-04-14T10:22:34.544Z,48.76
2019-04-14T10:23:43.066Z,48.64
2019-04-14T10:24:48.212Z,48.35
2019-04-14T10:25:53.243Z,48.23
2019-04-14T10:26:58.454Z,47.92
2019-04-14T10:28:03.909Z,47.81
2019-04-14T10:29:08.906Z,47.56
2019-04-14T10:30:14.112Z,47.49
2019-04-14T10:31:19.056Z,47.33
2019-04-14T10:32:24.071Z,47.24
2019-04-14T10:33:29.083Z,47.25
2019-04-14T10:34:34.507Z,47.29
2019-04-14T10:35:39.554Z,47.33
2019-04-14T10:36:44.694Z,47.38
2019-04-14T10:37:49.646Z,47.38
2019-04-14T10:38:54.909Z,47.33
2019-04-14T10:40:00.236Z,47.24
2019-04-14T10:41:05.200Z,47.12
2019-04-14T10:42:10.530Z,47.01
2019-04-14T10:43:15.504Z,46.93
2019-04-14T10:44:20.446Z,46.80
2019-04-14T10:45:25.451Z,46.57
2019-04-14T10:46:30.477Z,45.81
2019-04-14T10:47:35.818Z,45.80
2019-04-14T10:48:40.894Z,45.80
2019-04-14T10:49:46.253Z,45.36
2019-04-14T10:50:51.365Z,45.32
2019-04-14T10:51:56.430Z,45.05
2019-04-14T10:53:01.464Z,44.93
2019-04-14T10:54:06.501Z,45.04
2019-04-14T10:55:12.040Z,44.51
2019-04-14T10:56:17.013Z,45.32
2019-04-14T10:57:21.940Z,45.27
2019-04-14T10:58:26.937Z,45.27
2019-04-14T10:59:31.903Z,45.21
2019-04-14T11:00:36.847Z,45.19
2019-04-14T11:01:42.043Z,45.12
2019-04-14T11:02:46.977Z,45.36
2019-04-14T11:03:51.972Z,45.08
2019-04-14T11:04:57.183Z,45.09
2019-04-14T11:06:23.389Z,44.93
2019-04-14T11:07:30.187Z,44.90
2019-04-14T11:08:35.153Z,44.76
2019-04-14T11:09:40.432Z,44.49
2019-04-14T11:10:45.358Z,44.28
2019-04-14T11:11:50.767Z,43.82
2019-04-14T11:12:55.812Z,43.61
2019-04-14T11:14:00.970Z,43.52
2019-04-14T11:15:06.866Z,43.18
2019-04-14T11:16:11.862Z,42.88
2019-04-14T11:17:16.824Z,42.46
2019-04-14T11:18:21.833Z,42.52
2019-04-14T11:19:26.960Z,42.56
2019-04-14T11:20:32.246Z,42.58
2019-04-14T11:21:42.700Z,42.57
2019-04-14T11:22:43.791Z,42.69
2019-04-14T11:23:48.712Z,42.73
2019-04-14T11:24:53.658Z,42.67
2019-04-14T11:25:58.685Z,42.43
2019-04-14T11:27:03.741Z,42.23
2019-04-14T11:28:08.871Z,42.14
2019-04-14T11:29:13.942Z,42.16
2019-04-14T11:30:20.793Z,42.16
2019-04-14T11:31:42.804Z,41.94
2019-04-14T11:32:53.215Z,41.89
2019-04-14T11:34:01.951Z,41.94
2019-04-14T11:35:29.043Z,41.87
2019-04-14T11:36:53.187Z,41.96
2019-04-14T11:38:26.198Z,42.11
2019-04-14T11:39:31.124Z,42.27
2019-04-14T11:40:41.335Z,42.36
2019-04-14T11:41:46.424Z,42.45
2019-04-14T11:42:52.788Z,42.50
2019-04-14T11:43:57.915Z,42.49
2019-04-14T11:45:03.228Z,42.51
2019-04-14T11:46:08.221Z,42.45
2019-04-14T11:47:16.085Z,42.33
2019-04-14T11:48:20.019Z,42.23
2019-04-14T11:49:25.034Z,41.94
2019-04-14T11:50:29.966Z,41.82
2019-04-14T11:51:35.104Z,41.67
2019-04-14T11:52:40.307Z,41.55
2019-04-14T11:53:45.622Z,41.52
2019-04-14T11:54:50.551Z,41.48
2019-04-14T11:55:55.566Z,41.49
2019-04-14T11:57:00.545Z,41.30
2019-04-14T11:58:05.726Z,41.14
2019-04-14T11:59:10.988Z,41.21
2019-04-14T12:00:41.491Z,41.28
2019-04-14T12:01:59.271Z,41.04
2019-04-14T12:03:26.780Z,40.65
2019-04-14T12:04:41.261Z,40.62
2019-04-14T12:06:04.167Z,40.67
2019-04-14T12:07:15.677Z,40.69
2019-04-14T12:08:27.547Z,40.69
2019-04-14T12:09:39.496Z,40.72
2019-04-14T12:10:44.543Z,40.75
2019-04-14T12:11:49.576Z,40.66
2019-04-14T12:12:54.763Z,40.52
2019-04-14T12:13:59.703Z,40.52
2019-04-14T12:15:07.587Z,40.41
2019-04-14T12:16:12.767Z,39.87
2019-04-14T12:17:17.853Z,39.47
2019-04-14T12:18:22.922Z,39.12
2019-04-14T12:19:28.054Z,39.17
2019-04-14T12:20:33.065Z,39.13
2019-04-14T12:21:38.107Z,39.07
2019-04-14T12:22:43.013Z,38.81
2019-04-14T12:23:48.314Z,38.88
2019-04-14T12:24:53.226Z,38.65
2019-04-14T12:26:05.098Z,38.53
2019-04-14T12:27:05.516Z,38.48
2019-04-14T12:28:11.375Z,38.35
2019-04-14T12:29:16.750Z,38.45
2019-04-14T12:30:22.390Z,38.50
2019-04-14T12:31:28.727Z,38.51
2019-04-14T12:32:33.753Z,38.56
2019-04-14T12:33:39.563Z,38.54
2019-04-14T12:34:44.788Z,38.48
2019-04-14T12:35:49.749Z,38.46
2019-04-14T12:36:54.792Z,38.14
2019-04-14T12:37:59.735Z,37.92
2019-04-14T12:39:09.167Z,37.74
2019-04-14T12:40:15.201Z,37.70
2019-04-14T12:41:31.565Z,37.75
2019-04-14T12:42:55.809Z,37.76
2019-04-14T12:44:18.593Z,37.62
2019-04-14T12:45:41.476Z,37.50
2019-04-14T12:46:54.953Z,37.50
2019-04-14T12:48:21.989Z,37.59
2019-04-14T12:49:37.560Z,37.74
2019-04-14T12:50:46.972Z,37.87
2019-04-14T12:52:20.482Z,37.95
2019-04-14T12:53:19.592Z,38.03
2019-04-14T12:54:25.693Z,38.04
2019-04-14T12:55:30.723Z,38.07
2019-04-14T12:56:35.792Z,38.21
2019-04-14T12:57:53.134Z,38.50
2019-04-14T12:59:17.681Z,38.84
2019-04-14T13:00:35.355Z,39.11
2019-04-14T13:01:45.462Z,39.34
2019-04-14T13:02:51.890Z,39.57
2019-04-14T13:03:57.174Z,39.86
2019-04-14T13:05:02.491Z,39.99
2019-04-14T13:06:07.590Z,40.12
2019-04-14T13:07:12.886Z,40.08
2019-04-14T13:08:17.925Z,39.98
2019-04-14T13:09:22.861Z,39.88
2019-04-14T13:10:27.925Z,39.82
2019-04-14T13:11:32.978Z,39.78
2019-04-14T13:12:38.233Z,39.72
2019-04-14T13:13:43.239Z,39.62
2019-04-14T13:14:48.255Z,39.51
2019-04-14T13:15:53.251Z,39.51
2019-04-14T13:16:58.376Z,39.46
2019-04-14T13:18:03.415Z,39.43
2019-04-14T13:19:08.431Z,39.25
2019-04-14T13:20:13.743Z,39.07
2019-04-14T13:21:18.785Z,38.91
2019-04-14T13:22:33.930Z,38.73
2019-04-14T13:23:31.174Z,38.74
2019-04-14T13:24:36.290Z,38.77
2019-04-14T13:25:41.282Z,38.82
2019-04-14T13:26:46.329Z,38.88
2019-04-14T13:27:51.490Z,38.84
2019-04-14T13:28:56.485Z,38.80
2019-04-14T13:30:01.885Z,38.66
2019-04-14T13:31:08.502Z,38.70
2019-04-14T13:32:13.523Z,38.74
2019-04-14T13:33:18.635Z,38.72
2019-04-14T13:34:23.630Z,38.65
2019-04-14T13:35:28.611Z,38.72
2019-04-14T13:36:33.537Z,38.79
2019-04-14T13:37:38.564Z,38.71
2019-04-14T13:38:43.982Z,38.65
2019-04-14T13:39:49.229Z,38.64
2019-04-14T13:40:54.153Z,38.69
2019-04-14T13:41:59.905Z,38.74
2019-04-14T13:43:04.858Z,38.83
2019-04-14T13:44:10.372Z,38.77
2019-04-14T13:45:15.479Z,38.65
2019-04-14T13:46:20.721Z,38.73
2019-04-14T13:47:25.675Z,38.67
2019-04-14T13:48:30.995Z,38.56
2019-04-14T13:49:35.967Z,38.29
2019-04-14T13:50:41.596Z,38.11
2019-04-14T13:51:46.514Z,38.14
2019-04-14T13:52:59.215Z,38.08
2019-04-14T13:54:04.427Z,37.99
2019-04-14T13:55:09.882Z,37.97
2019-04-14T13:56:14.931Z,38.04
2019-04-14T13:57:19.941Z,38.09
2019-04-14T13:58:24.905Z,38.13
2019-04-14T13:59:30.137Z,38.23
2019-04-14T14:00:35.508Z,38.41
2019-04-14T14:01:40.830Z,38.72
2019-04-14T14:02:45.802Z,38.87
2019-04-14T14:03:50.868Z,38.95
2019-04-14T14:04:55.839Z,39.08
2019-04-14T14:06:00.757Z,39.23
2019-04-14T14:07:06.218Z,39.33
2019-04-14T14:08:11.328Z,39.47
2019-04-14T14:09:16.959Z,39.59
2019-04-14T14:10:22.064Z,39.70
2019-04-14T14:11:36.134Z,39.76
2019-04-14T14:13:00.088Z,39.79
2019-04-14T14:14:10.775Z,39.74
2019-04-14T14:15:33.610Z,39.70
2019-04-14T14:16:56.861Z,39.72
2019-04-14T14:18:23.568Z,39.70
2019-04-14T14:19:35.595Z,39.68
2019-04-14T14:21:12.041Z,39.78
2019-04-14T14:22:41.771Z,39.81
2019-04-14T14:24:11.528Z,39.66
2019-04-14T14:25:20.865Z,39.62
2019-04-14T14:26:27.180Z,39.57
2019-04-14T14:27:32.167Z,39.54
2019-04-14T14:28:38.673Z,39.56
2019-04-14T14:29:43.826Z,39.57
2019-04-14T14:30:48.906Z,39.58
2019-04-14T14:31:54.192Z,39.62
2019-04-14T14:32:59.214Z,39.63
2019-04-14T14:34:04.331Z,39.62
2019-04-14T14:35:09.838Z,39.68
2019-04-14T14:36:14.881Z,39.70
2019-04-14T14:37:19.991Z,39.71
2019-04-14T14:38:25.369Z,39.73
2019-04-14T14:39:30.519Z,39.76
2019-04-14T14:40:35.837Z,39.73
2019-04-14T14:41:40.795Z,39.63
2019-04-14T14:42:46.013Z,39.61
2019-04-14T14:43:51.353Z,39.57
2019-04-14T14:45:11.612Z,39.32
2019-04-14T14:46:36.899Z,39.29
2019-04-14T14:47:46.086Z,39.37
2019-04-14T14:48:56.219Z,39.31
2019-04-14T14:50:07.930Z,39.22
2019-04-14T14:51:31.918Z,39.21
2019-04-14T14:52:38.492Z,39.19
2019-04-14T14:53:43.414Z,39.22
2019-04-14T14:54:48.454Z,39.20
2019-04-14T14:55:53.455Z,39.22
2019-04-14T14:56:58.984Z,39.22
2019-04-14T14:58:04.258Z,39.26
2019-04-14T14:59:09.664Z,39.34
2019-04-14T15:00:25.397Z,39.41
2019-04-14T15:01:30.753Z,39.46
2019-04-14T15:02:35.736Z,39.42
2019-04-14T15:03:40.727Z,39.34
2019-04-14T15:04:45.642Z,39.27
2019-04-14T15:05:51.017Z,39.15
2019-04-14T15:06:55.950Z,38.92
2019-04-14T15:08:01.042Z,38.83
2019-04-14T15:09:07.727Z,38.76
2019-04-14T15:10:12.805Z,38.71
2019-04-14T15:11:18.011Z,38.66
2019-04-14T15:12:23.219Z,38.67